Time;durP1;ratioP1;P1;durP2;ratioP2;P2;SDS_P1;SDS_P2;PMS_P1;PMS_P2;Temp;Humidity;BMP_temperature;BMP_pressure;BME280_temperature;BME280_humidity;BME280_pressure;Samples;Min_cycle;Max_cycle;Signal;HPM_P1;HPM_P2
2023/05/25 07:23:19;;;;;;;9.43;6.82;;;;;;;-145.79;64.91;78640.78;5301640;27;20360;-68
2023/05/25 07:25:50;;;;;;;9.68;6.40;;;;;;;-145.79;63.90;78645.00;5296848;28;20029;-68
2023/05/25 07:28:21;;;;;;;10.38;6.43;;;;;;;-145.79;64.41;78628.06;5293693;28;20114;-68
2023/05/25 07:30:52;;;;;;;11.05;6.78;;;;;;;-145.79;64.74;78615.34;5299426;28;20032;-68
2023/05/25 07:33:24;;;;;;;7.97;5.35;;;;;;;-145.79;64.18;78589.88;5290359;28;20025;-68
2023/05/25 07:35:55;;;;;;;9.95;5.55;;;;;;;-145.79;63.98;78572.94;5280346;28;20025;-68
2023/05/25 07:38:26;;;;;;;8.82;5.63;;;;;;;-145.79;62.59;78585.66;5297614;28;20025;-68
2023/05/25 07:40:58;;;;;;;10.15;5.80;;;;;;;-145.79;62.44;78579.28;5279782;28;20024;-68
2023/05/25 07:43:29;;;;;;;11.45;6.55;;;;;;;-145.79;63.41;78570.81;5279014;28;20498;-68
2023/05/25 07:46:03;;;;;;;13.88;6.95;;;;;;;-145.79;62.18;78577.16;5279186;28;20407;-68
2023/05/25 07:48:34;;;;;;;13.15;6.70;;;;;;;-145.79;61.78;78555.97;5279766;28;20091;-67
2023/05/25 07:51:06;;;;;;;9.98;5.07;;;;;;;-145.79;62.76;78534.75;5279328;28;20062;-68
2023/05/25 07:53:38;;;;;;;7.07;6.05;;;;;;;-145.79;60.42;78530.53;5290475;28;20039;-68
2023/05/25 07:56:09;;;;;;;12.68;5.53;;;;;;;-145.79;59.16;78513.56;5300469;28;20448;-68
2023/05/25 07:58:41;;;;;;;10.02;5.68;;;;;;;-145.79;58.53;78513.56;5299549;28;20028;-68
2023/05/25 08:01:13;;;;;;;13.23;6.57;;;;;;;-145.79;60.06;78494.47;5332507;27;20424;-67
2023/05/25 08:03:44;;;;;;;7.53;5.57;;;;;;;-145.79;58.77;78505.06;5284146;28;20566;-68
2023/05/25 08:06:16;;;;;;;9.55;5.65;;;;;;;-145.79;58.86;78502.97;5277628;28;20103;-67
2023/05/25 08:08:48;;;;;;;10.05;5.80;;;;;;;-145.79;59.20;78479.63;5278968;28;20020;-67
2023/05/25 08:11:25;;;;;;;10.40;5.32;;;;;;;-145.79;59.23;78488.13;5279153;28;20037;-67
2023/05/25 08:13:56;;;;;;;9.80;6.60;;;;;;;-145.79;59.08;78500.84;5287538;28;20017;-67
2023/05/25 08:16:28;;;;;;;9.15;5.90;;;;;;;-145.79;58.60;78479.63;5300094;28;20024;-68
2023/05/25 08:19:00;;;;;;;8.10;6.07;;;;;;;-145.79;58.21;78477.50;5299927;28;20037;-68
2023/05/25 08:21:33;;;;;;;9.52;5.70;;;;;;;-145.79;57.78;78475.41;5299219;28;20407;-68
2023/05/25 08:24:07;;;;;;;9.27;6.10;;;;;;;-145.79;57.61;78473.28;5295122;28;20028;-68
2023/05/25 08:26:39;;;;;;;11.13;6.28;;;;;;;-145.79;57.45;78441.47;5291813;28;20491;-69
2023/05/25 08:29:11;;;;;;;10.77;5.95;;;;;;;-145.79;56.90;78445.72;5290484;28;20111;-69
2023/05/25 08:31:44;;;;;;;11.50;6.32;;;;;;;-145.79;56.69;78445.72;5286400;28;20107;-69
2023/05/25 08:34:21;;;;;;;9.13;5.80;;;;;;;-145.79;56.58;78428.75;5274977;28;20090;-68
2023/05/25 08:36:52;;;;;;;11.80;5.65;;;;;;;-145.79;56.12;78420.28;5268396;28;20017;-68
2023/05/25 08:39:24;;;;;;;9.05;5.63;;;;;;;-145.79;55.74;78407.53;5285346;28;20024;-68
2023/05/25 08:41:55;;;;;;;8.48;5.43;;;;;;;-145.79;54.99;78390.59;5264828;28;20032;-68
2023/05/25 08:44:29;;;;;;;11.98;5.65;;;;;;;-145.79;54.51;78379.97;5281525;28;20136;-68
2023/05/25 08:47:08;;;;;;;13.70;10.25;;;;;;;-145.79;54.76;78405.44;5285146;28;20025;-68
2023/05/25 08:49:40;;;;;;;8.00;5.50;;;;;;;-145.79;54.35;78426.63;5285008;28;20414;-69
2023/05/25 08:52:20;;;;;;;11.25;5.80;;;;;;;-145.79;54.60;78428.75;5285430;28;20031;-68
2023/05/25 08:54:55;;;;;;;10.50;5.13;;;;;;;-145.79;55.09;78428.75;5279947;28;20408;-68
2023/05/25 08:57:35;;;;;;;10.68;4.68;;;;;;;-145.79;54.51;78426.63;5264592;28;20025;-68
2023/05/25 09:00:11;;;;;;;12.40;5.18;;;;;;;-145.79;54.29;78405.44;5264440;28;20082;-68
2023/05/25 09:02:47;;;;;;;;;;;;;;;-145.79;54.47;78382.09;5273627;28;20387;-68
2023/05/25 09:05:20;;;;;;;10.25;4.93;;;;;;;-145.79;54.60;78367.25;5285209;28;19923;-68
2023/05/25 09:07:53;;;;;;;9.95;4.30;;;;;;;-145.79;54.78;78360.91;5285111;28;20070;-70
2023/05/25 09:10:26;;;;;;;8.68;4.78;;;;;;;-145.79;53.77;78373.63;5281367;28;20036;-68
2023/05/25 09:12:58;;;;;;;9.80;4.85;;;;;;;-145.79;53.98;78386.34;5262065;28;20031;-68
2023/05/25 09:15:34;;;;;;;10.20;4.50;;;;;;;-145.79;54.31;78377.88;5261238;28;20036;-68
2023/05/25 09:18:05;;;;;;;11.18;5.82;;;;;;;-145.79;54.19;78382.09;5261043;28;20052;-68
2023/05/25 09:20:40;;;;;;;14.05;5.80;;;;;;;-145.79;53.58;78390.59;5261858;28;20060;-68
2023/05/25 09:23:12;;;;;;;13.43;5.40;;;;;;;-145.79;54.59;78390.59;5271046;28;20051;-68
2023/05/25 09:25:45;;;;;;;8.30;4.63;;;;;;;-145.79;54.87;78384.22;5283864;28;20498;-67
2023/05/25 09:28:19;;;;;;;9.25;4.75;;;;;;;-145.79;55.25;78388.47;5265608;28;20025;-68
2023/05/25 09:30:51;;;;;;;9.52;4.65;;;;;;;-145.79;55.40;78377.88;5270294;28;20108;-67
2023/05/25 09:33:22;;;;;;;9.68;4.38;;;;;;;-145.79;54.79;78386.34;5266019;28;20107;-67
2023/05/25 09:35:54;;;;;;;8.80;4.00;;;;;;;-145.79;54.50;78392.72;5263857;28;20112;-68
2023/05/25 09:38:26;;;;;;;8.65;4.38;;;;;;;-145.79;55.38;78388.47;5262818;28;20151;-68
2023/05/25 09:40:58;;;;;;;8.70;5.00;;;;;;;-145.79;54.18;78394.81;5270000;28;20142;-68
2023/05/25 09:43:30;;;;;;;15.73;8.70;;;;;;;-145.79;54.08;78392.72;5263383;28;20028;-68
2023/05/25 09:46:02;;;;;;;10.00;6.68;;;;;;;-145.79;54.41;78377.88;5279280;28;20040;-69
2023/05/25 09:48:33;;;;;;;10.85;5.10;;;;;;;-145.79;52.93;78382.09;5281626;28;20025;-69
2023/05/25 09:51:06;;;;;;;10.52;5.32;;;;;;;-145.79;53.24;78382.09;5265221;28;20088;-68
2023/05/25 09:53:37;;;;;;;13.43;5.47;;;;;;;-145.79;53.26;78371.50;5263103;28;20021;-69
2023/05/25 09:56:11;;;;;;;12.02;4.28;;;;;;;-145.79;55.12;78365.16;5283728;28;20036;-69
2023/05/25 09:58:43;;;;;;;5.43;3.88;;;;;;;-145.79;54.22;78363.03;5283249;28;20032;-69
2023/05/25 10:01:15;;;;;;;14.55;6.78;;;;;;;-145.79;52.73;78386.34;5283733;28;20464;-69
2023/05/25 10:03:47;;;;;;;8.25;4.30;;;;;;;-145.79;53.83;78371.50;5283767;28;20046;-67
2023/05/25 10:06:19;;;;;;;8.55;4.35;;;;;;;-145.79;53.39;78369.38;5273361;28;20017;-66
2023/05/25 10:08:51;;;;;;;20.23;14.23;;;;;;;-145.79;53.03;78360.91;5261964;28;20543;-67
2023/05/25 10:11:23;;;;;;;9.25;3.63;;;;;;;-145.79;53.00;78360.91;5277535;28;20036;-69
2023/05/25 10:13:57;;;;;;;8.85;3.95;;;;;;;-145.79;51.77;78371.50;5281809;28;20047;-69
2023/05/25 10:16:32;;;;;;;9.27;4.43;;;;;;;-145.79;52.12;78356.66;5283117;28;20024;-69
2023/05/25 10:19:11;;;;;;;8.23;4.18;;;;;;;-145.79;52.37;78369.38;5283298;28;20127;-69
2023/05/25 10:21:50;;;;;;;11.50;5.22;;;;;;;-145.79;52.62;78356.66;5282192;28;20207;-68
2023/05/25 10:24:58;;;;;;;9.73;5.00;;;;;;;-145.79;52.95;78350.31;5267376;28;20082;-69
2023/05/25 10:27:37;;;;;;;11.75;4.47;;;;;;;-145.79;52.18;78350.31;5240238;28;20124;-69
2023/05/25 10:30:09;;;;;;;10.50;4.57;;;;;;;-145.79;52.37;78360.91;5241570;28;20091;-67
2023/05/25 10:32:43;;;;;;;7.68;4.15;;;;;;;-145.79;52.21;78348.19;5242038;28;20057;-69
2023/05/25 10:35:15;;;;;;;12.77;4.22;;;;;;;-145.79;51.79;78350.31;5240911;28;20013;-68
2023/05/25 10:37:46;;;;;;;8.63;4.80;;;;;;;-145.79;51.93;78348.19;5241829;28;20553;-68
2023/05/25 10:40:21;;;;;;;10.27;4.72;;;;;;;-145.79;52.02;78354.53;5250764;28;20028;-68
2023/05/25 10:42:53;;;;;;;9.77;4.85;;;;;;;-145.79;52.05;78365.16;5261118;28;20032;-68
2023/05/25 10:45:25;;;;;;;10.98;4.10;;;;;;;-145.79;51.73;78365.16;5262494;28;20025;-68
2023/05/25 10:47:57;;;;;;;11.25;4.47;;;;;;;-145.79;51.62;78373.63;5261780;28;20412;-69
2023/05/25 10:50:33;;;;;;;7.38;5.20;;;;;;;-145.79;51.78;78363.03;5262186;28;20017;-68
2023/05/25 10:53:07;;;;;;;8.73;4.90;;;;;;;-145.79;51.44;78348.19;5270643;28;20467;-68
2023/05/25 10:55:50;;;;;;;9.70;3.97;;;;;;;-145.79;51.38;78337.59;5282092;28;20383;-69
2023/05/25 10:58:25;;;;;;;8.68;3.90;;;;;;;-145.79;50.55;78331.22;5264225;28;20028;-69
2023/05/25 11:01:07;;;;;;;9.57;4.20;;;;;;;-145.79;51.05;78318.50;5276978;28;20391;-69
2023/05/25 11:03:57;;;;;;;8.70;4.40;;;;;;;-145.79;50.00;78310.03;5281849;28;20117;-69
2023/05/25 11:06:39;;;;;;;5.65;3.65;;;;;;;-145.79;49.82;78314.25;5282600;28;20033;-69
2023/05/25 11:09:30;;;;;;;7.85;4.70;;;;;;;-145.79;50.06;78303.66;5282099;28;20052;-69
2023/05/25 11:12:02;;;;;;;10.68;3.92;;;;;;;-145.79;49.74;78312.13;5283033;28;20472;-69
2023/05/25 11:14:41;;;;;;;20.17;12.75;;;;;;;-145.79;49.92;78305.78;5270767;28;20025;-69
2023/05/25 11:17:14;;;;;;;8.10;4.35;;;;;;;-145.79;49.98;78293.06;5260861;28;20050;-70
2023/05/25 11:19:53;;;;;;;6.75;3.75;;;;;;;-145.79;48.66;78276.09;5261710;28;20033;-69
2023/05/25 11:22:34;;;;;;;9.35;4.28;;;;;;;-145.79;48.27;78237.94;5260147;28;20067;-70
2023/05/25 11:25:36;;;;;;;13.35;4.00;;;;;;;-145.79;48.22;78197.66;5259392;28;20473;-70
2023/05/25 11:28:10;;;;;;;9.45;4.00;;;;;;;-145.79;47.55;78225.22;5272293;28;20066;-70
2023/05/25 11:30:41;;;;;;;7.28;4.68;;;;;;;-145.79;48.21;78233.69;5277831;28;20051;-70
2023/05/25 11:33:13;;;;;;;13.77;4.95;;;;;;;-145.79;48.27;78223.09;5261405;28;20021;-70
2023/05/25 11:35:47;;;;;;;9.45;4.57;;;;;;;-145.79;48.06;78225.22;5261988;28;20035;-70
2023/05/25 11:38:19;;;;;;;8.63;4.33;;;;;;;-145.79;47.98;78242.19;5277749;28;20024;-71
2023/05/25 11:40:51;;;;;;;8.60;4.65;;;;;;;-145.79;48.40;78231.56;5282383;28;20441;-73
2023/05/25 11:43:25;;;;;;;11.73;4.40;;;;;;;-145.79;48.57;78218.84;5282607;28;20056;-72
2023/05/25 11:45:56;;;;;;;9.90;4.07;;;;;;;-145.79;48.08;78208.25;5282151;28;20024;-71
2023/05/25 11:48:27;;;;;;;7.60;4.15;;;;;;;-145.79;47.73;78199.78;5270797;28;20550;-71
2023/05/25 11:51:05;;;;;;;11.82;4.97;;;;;;;-145.79;47.00;78165.84;5260801;28;20033;-71
2023/05/25 11:53:44;;;;;;;8.75;4.20;;;;;;;-145.79;46.67;78157.38;5274611;28;20021;-69
2023/05/25 11:56:17;;;;;;;8.18;4.57;;;;;;;-145.79;46.10;78161.63;5281361;28;20055;-69
2023/05/25 11:58:49;;;;;;;9.10;5.30;;;;;;;-145.79;46.54;78155.25;5270567;28;20104;-70
2023/05/25 12:01:24;;;;;;;9.18;4.43;;;;;;;-145.79;46.94;78167.97;5269103;28;20127;-70
2023/05/25 12:03:56;;;;;;;10.55;5.40;;;;;;;-145.79;46.93;78174.34;5282156;28;20107;-69
2023/05/25 12:06:30;;;;;;;7.63;4.43;;;;;;;-145.79;46.94;78187.06;5262412;28;20104;-70
2023/05/25 12:09:04;;;;;;;10.43;4.55;;;;;;;-145.79;47.57;78187.06;5263536;28;20029;-69
2023/05/25 12:11:44;;;;;;;11.48;6.20;;;;;;;-145.79;47.77;78182.81;5263594;28;20033;-70
2023/05/25 12:14:15;;;;;;;10.05;5.15;;;;;;;-145.79;47.89;78187.06;5275366;28;20032;-71
2023/05/25 12:16:47;;;;;;;7.13;4.88;;;;;;;-145.79;47.72;78182.81;5269693;28;20050;-70
2023/05/25 12:19:18;;;;;;;10.25;4.75;;;;;;;-145.79;47.81;78204.00;5278241;28;20031;-70
2023/05/25 12:21:50;;;;;;;37.20;27.90;;;;;;;-145.79;48.16;78199.78;5282917;28;20461;-70
2023/05/25 12:24:22;;;;;;;9.35;5.60;;;;;;;-145.79;47.91;78178.56;5270150;28;20434;-70
2023/05/25 12:26:57;;;;;;;11.93;5.28;;;;;;;-145.79;47.39;78180.69;5264044;28;20021;-69
2023/05/25 12:29:28;;;;;;;9.43;5.03;;;;;;;-145.79;47.38;78161.63;5265014;28;20120;-71
2023/05/25 12:32:04;;;;;;;11.38;5.60;;;;;;;-145.79;47.75;78144.66;5268713;28;20111;-69
2023/05/25 12:34:37;;;;;;;;;;;;;;;-145.79;47.70;78121.34;5283846;28;20399;-70
2023/05/25 12:37:21;;;;;;;9.90;4.88;;;;;;;-145.79;46.90;78093.78;5275905;28;19916;-70
2023/05/25 12:39:52;;;;;;;8.75;4.65;;;;;;;-145.79;45.69;78089.53;5271304;28;20021;-70
2023/05/25 12:42:29;;;;;;;9.02;4.90;;;;;;;-145.79;45.38;78089.53;5263828;28;20033;-69
2023/05/25 12:45:00;;;;;;;12.70;4.88;;;;;;;-145.79;46.07;78095.91;5264904;28;20055;-70
2023/05/25 12:47:32;;;;;;;11.52;5.30;;;;;;;-145.79;45.93;78087.41;5264163;28;20107;-71
2023/05/25 12:50:13;;;;;;;9.68;5.13;;;;;;;-145.79;45.92;78098.00;5285771;28;20024;-70
2023/05/25 12:52:46;;;;;;;8.38;4.90;;;;;;;-145.79;45.64;78098.00;5285436;28;20036;-71
2023/05/25 12:55:20;;;;;;;8.75;4.63;;;;;;;-145.79;44.80;78066.22;5282864;28;20034;-70
2023/05/25 12:58:25;;;;;;;9.90;5.95;;;;;;;-145.79;44.51;78066.22;5278470;28;20041;-70
2023/05/25 13:00:56;;;;;;;8.32;4.50;;;;;;;-145.79;44.54;78074.69;5284696;28;20028;-70
2023/05/25 13:03:28;;;;;;;11.02;4.72;;;;;;;-145.79;44.97;78091.66;5282408;28;20529;-69
2023/05/25 13:06:01;;;;;;;8.20;4.88;;;;;;;-145.79;45.14;78093.78;5284654;28;20017;-71
2023/05/25 13:08:32;;;;;;;7.90;5.20;;;;;;;-145.79;45.14;78110.72;5283767;28;20056;-70
2023/05/25 13:11:03;;;;;;;7.90;5.05;;;;;;;-145.79;45.43;78093.78;5285153;28;20473;-69
2023/05/25 13:13:35;;;;;;;8.90;4.25;;;;;;;-145.79;46.28;78091.66;5272913;28;20387;-71
2023/05/25 13:16:06;;;;;;;10.20;5.47;;;;;;;-145.79;46.39;78093.78;5264263;28;20507;-69
2023/05/25 13:18:38;;;;;;;10.80;7.28;;;;;;;-145.79;45.83;78070.44;5263796;28;20033;-69
2023/05/25 13:21:09;;;;;;;9.40;5.47;;;;;;;-145.79;45.78;78038.66;5263597;28;20466;-70
2023/05/25 13:23:40;;;;;;;10.05;6.13;;;;;;;-145.79;45.78;78049.25;5242504;28;20025;-70
2023/05/25 13:26:12;;;;;;;10.25;5.40;;;;;;;-145.79;45.46;78047.13;5284673;28;20020;-69
2023/05/25 13:28:43;;;;;;;8.50;4.75;;;;;;;-145.79;45.20;78036.53;5284062;28;20101;-70
2023/05/25 13:31:14;;;;;;;9.45;4.97;;;;;;;-145.79;45.20;78057.72;5266443;28;20025;-70
2023/05/25 13:33:46;;;;;;;10.05;5.20;;;;;;;-145.79;45.56;78066.22;5267697;28;20364;-69
2023/05/25 13:36:17;;;;;;;7.93;4.65;;;;;;;-145.79;45.27;78074.69;5283588;28;20028;-70
2023/05/25 13:38:49;;;;;;;8.25;4.30;;;;;;;-145.79;45.46;78064.09;5284328;28;20024;-71
2023/05/25 13:41:20;;;;;;;8.52;4.43;;;;;;;-145.79;45.45;78083.19;5284077;28;20028;-72
2023/05/25 13:43:52;;;;;;;6.22;4.35;;;;;;;-145.79;45.42;78059.84;5282849;28;20032;-70
2023/05/25 13:46:23;;;;;;;8.75;4.40;;;;;;;-145.79;45.16;78036.53;5282486;28;20024;-68
2023/05/25 13:48:54;;;;;;;10.20;5.60;;;;;;;-145.79;44.92;78017.44;5263174;28;20037;-68
2023/05/25 13:51:26;;;;;;;9.75;5.22;;;;;;;-145.79;45.00;78017.44;5262782;28;20029;-69
2023/05/25 13:53:57;;;;;;;13.88;10.35;;;;;;;-145.79;44.87;78021.69;5262894;28;20108;-70
2023/05/25 13:56:28;;;;;;;7.30;5.78;;;;;;;-145.79;44.65;78025.94;5263341;28;20480;-69
2023/05/25 13:59:00;;;;;;;10.60;4.82;;;;;;;-145.79;44.70;78021.69;5262307;28;20032;-69
2023/05/25 14:01:31;;;;;;;7.40;5.03;;;;;;;-145.79;44.20;78017.44;5263065;28;20171;-69
2023/05/25 14:04:03;;;;;;;7.40;5.07;;;;;;;-145.79;44.11;78015.34;5266861;28;20023;-69
2023/05/25 14:06:37;;;;;;;10.27;4.47;;;;;;;-145.79;44.26;78017.44;5255856;28;20033;-71
2023/05/25 14:09:09;;;;;;;8.80;4.85;;;;;;;-145.79;44.43;78011.09;5262904;28;20017;-72
2023/05/25 14:11:40;;;;;;;8.52;4.40;;;;;;;-145.79;44.36;78008.97;5262095;28;20017;-71
2023/05/25 14:14:11;;;;;;;9.95;4.30;;;;;;;-145.79;42.66;77983.53;5262847;28;20380;-71
2023/05/25 14:16:43;;;;;;;7.35;4.43;;;;;;;-145.79;42.23;77964.47;5262996;28;20104;-71
2023/05/25 14:19:15;;;;;;;7.15;5.20;;;;;;;-145.79;41.88;77958.09;5268651;28;20089;-70
2023/05/25 14:21:46;;;;;;;8.90;4.50;;;;;;;-145.79;41.69;77947.50;5264684;28;20416;-69
2023/05/25 14:24:18;;;;;;;6.95;4.10;;;;;;;-145.79;41.91;77953.84;5262016;28;20032;-70
2023/05/25 14:26:49;;;;;;;9.35;4.80;;;;;;;-145.79;42.01;77958.09;5265605;28;20472;-69
2023/05/25 14:29:20;;;;;;;10.32;5.78;;;;;;;-145.79;42.53;77962.34;5282556;28;20513;-68
2023/05/25 14:31:52;;;;;;;10.40;6.68;;;;;;;-145.79;42.84;77970.81;5282220;28;20067;-70
2023/05/25 14:34:23;;;;;;;8.82;6.38;;;;;;;-145.79;43.26;77966.56;5273975;28;20053;-70
2023/05/25 14:36:54;;;;;;;12.27;5.28;;;;;;;-145.79;42.78;77966.56;5262612;28;20021;-70
2023/05/25 14:39:25;;;;;;;6.30;3.88;;;;;;;-145.79;43.37;77953.84;5269485;28;20025;-70
2023/05/25 14:41:57;;;;;;;6.97;4.05;;;;;;;-145.79;43.20;77953.84;5261433;28;20029;-69
2023/05/25 14:44:31;;;;;;;8.90;5.07;;;;;;;-145.79;42.77;77977.19;5262141;28;20033;-70
2023/05/25 14:47:03;;;;;;;8.18;5.20;;;;;;;-145.79;42.61;77962.34;5261555;28;20044;-69
2023/05/25 14:49:34;;;;;;;6.63;4.28;;;;;;;-145.79;43.12;77989.91;5274450;28;20028;-70
2023/05/25 14:52:06;;;;;;;10.52;4.35;;;;;;;-145.79;42.54;77998.38;5282904;28;20032;-70
2023/05/25 14:54:43;;;;;;;5.82;4.25;;;;;;;-145.79;43.24;78004.72;5278136;28;20484;-70
2023/05/25 14:57:15;;;;;;;5.93;4.00;;;;;;;-145.79;43.79;77994.13;5271469;28;20046;-70
2023/05/25 14:59:46;;;;;;;7.05;3.92;;;;;;;-145.79;42.76;77981.41;5261036;28;20016;-70
2023/05/25 15:02:17;;;;;;;10.13;6.82;;;;;;;-145.79;42.32;77966.56;5260826;28;20029;-69
2023/05/25 15:04:48;;;;;;;11.07;4.95;;;;;;;-145.79;42.10;77939.00;5261788;28;20024;-70
2023/05/25 15:07:20;;;;;;;7.90;4.18;;;;;;;-145.79;41.70;77930.53;5261722;28;20460;-70
2023/05/25 15:09:51;;;;;;;6.22;4.63;;;;;;;-145.79;41.64;77917.81;5263432;28;20083;-70
2023/05/25 15:12:23;;;;;;;7.05;4.38;;;;;;;-145.79;42.04;77934.78;5279248;28;20032;-70
2023/05/25 15:14:54;;;;;;;8.00;5.10;;;;;;;-145.79;42.23;77943.25;5274977;28;20064;-70
2023/05/25 15:17:25;;;;;;;6.85;4.60;;;;;;;-145.79;42.18;77958.09;5282572;28;20024;-69
2023/05/25 15:19:57;;;;;;;10.82;5.38;;;;;;;-145.79;41.93;77960.22;5282807;28;20151;-70
2023/05/25 15:22:28;;;;;;;8.77;5.68;;;;;;;-145.79;42.29;77966.56;5262155;28;20045;-70
2023/05/25 15:24:59;;;;;;;8.98;5.18;;;;;;;-145.79;41.79;77970.81;5278395;28;20040;-70
2023/05/25 15:27:31;;;;;;;9.30;4.32;;;;;;;-145.79;42.18;77953.84;5282202;28;20021;-70
2023/05/25 15:30:03;;;;;;;9.95;5.18;;;;;;;-145.79;42.22;77922.06;5265553;28;20048;-70
2023/05/25 15:32:34;;;;;;;44.05;36.55;;;;;;;-145.79;41.62;77898.75;5281723;28;20476;-71
2023/05/25 15:35:06;;;;;;;13.23;7.00;;;;;;;-145.79;40.92;77902.97;5282884;28;20031;-70
2023/05/25 15:37:37;;;;;;;7.78;5.25;;;;;;;-145.79;40.57;77907.22;5281525;28;20032;-71
2023/05/25 15:40:09;;;;;;;8.52;5.03;;;;;;;-145.79;40.79;77890.25;5272227;28;20047;-71
2023/05/25 15:42:40;;;;;;;7.93;6.18;;;;;;;-145.79;40.92;77902.97;5281986;28;20037;-70
2023/05/25 15:45:12;;;;;;;10.95;4.90;;;;;;;-145.79;41.16;77890.25;5274549;28;20468;-71
2023/05/25 15:47:43;;;;;;;9.30;5.57;;;;;;;-145.79;41.42;77886.00;5267311;28;20021;-71
2023/05/25 15:50:14;;;;;;;10.82;5.38;;;;;;;-145.79;41.54;77866.94;5265297;28;20032;-71
2023/05/25 15:52:46;;;;;;;8.10;4.38;;;;;;;-145.79;41.80;77869.06;5265472;28;20021;-68
2023/05/25 15:55:17;;;;;;;9.80;4.60;;;;;;;-145.79;42.28;77879.66;5265761;28;20164;-69
2023/05/25 15:57:49;;;;;;;8.45;4.18;;;;;;;-145.79;42.23;77902.97;5273444;28;20043;-72
2023/05/25 16:00:20;;;;;;;11.52;7.78;;;;;;;-145.79;42.79;77890.25;5285367;28;20104;-75
2023/05/25 16:02:51;;;;;;;7.75;4.72;;;;;;;-145.79;42.19;77907.22;5279812;28;20437;-76
2023/05/25 16:05:23;;;;;;;7.40;4.45;;;;;;;-145.79;42.42;77924.19;5264434;28;20158;-75
2023/05/25 16:07:55;;;;;;;9.82;5.25;;;;;;;-145.79;42.69;77930.53;5271261;28;20040;-78
2023/05/25 16:10:26;;;;;;;8.25;4.53;;;;;;;-145.79;42.39;77951.72;5286677;28;20032;-78
2023/05/25 16:12:57;;;;;;;10.48;5.35;;;;;;;-145.79;42.62;77947.50;5285204;28;20024;-78
2023/05/25 16:15:29;;;;;;;15.23;10.93;;;;;;;-145.79;42.46;77936.91;5286748;28;20020;-78
2023/05/25 16:18:00;;;;;;;12.82;6.05;;;;;;;-145.79;42.30;77939.00;5285063;28;20043;-78
2023/05/25 16:20:32;;;;;;;8.93;4.75;;;;;;;-145.79;42.19;77928.41;5273700;28;20055;-79
2023/05/25 16:23:03;;;;;;;10.68;4.50;;;;;;;-145.79;42.18;77902.97;5264562;28;20049;-78
2023/05/25 16:25:34;;;;;;;9.75;4.57;;;;;;;-145.79;41.95;77886.00;5264705;28;20044;-79
2023/05/25 16:28:05;;;;;;;10.68;4.13;;;;;;;-145.79;41.62;77866.94;5265034;28;20086;-79
2023/05/25 16:30:37;;;;;;;11.65;4.65;;;;;;;-145.79;41.01;77847.84;5265331;28;20032;-76
2023/05/25 16:33:08;;;;;;;9.55;4.30;;;;;;;-145.79;41.45;77841.50;5274705;28;20032;-76
2023/05/25 16:35:39;;;;;;;8.65;3.95;;;;;;;-145.79;41.34;77849.97;5265070;28;20514;-75
2023/05/25 16:38:11;;;;;;;6.90;4.47;;;;;;;-145.79;41.59;77860.56;5273623;28;20150;-75
2023/05/25 16:40:42;;;;;;;8.18;3.90;;;;;;;-145.79;41.09;77830.91;5263569;28;20528;-75
2023/05/25 16:43:13;;;;;;;24.33;21.67;;;;;;;-145.79;40.57;77845.75;5264358;28;20460;-76
2023/05/25 16:45:45;;;;;;;9.27;4.90;;;;;;;-145.79;40.95;77862.69;5264917;28;20048;-77
2023/05/25 16:48:16;;;;;;;7.35;4.20;;;;;;;-145.79;41.42;77877.53;5263740;28;20107;-77
2023/05/25 16:50:47;;;;;;;10.40;4.90;;;;;;;-145.79;41.72;77900.84;5264624;28;20029;-77
2023/05/25 16:53:18;;;;;;;8.93;4.70;;;;;;;-145.79;42.07;77898.75;5263184;28;20040;-76
